Time;durP1;ratioP1;P1;durP2;ratioP2;P2;SDS_P1;SDS_P2;PMS_P1;PMS_P2;Temp;Humidity;BMP_temperature;BMP_pressure;BME280_temperature;BME280_humidity;BME280_pressure;Samples;Min_cycle;Max_cycle;Signal;HPM_P1;HPM_P2
2024/02/28 00:00:22;;;;;;;157.10;41.50;;;2.70;99.90;;;;;;7368429;19;20511;-66
2024/02/28 00:02:51;;;;;;;120.10;39.00;;;2.70;99.90;;;;;;7360800;19;20869;-70
2024/02/28 00:05:18;;;;;;;214.60;41.42;;;2.80;99.90;;;;;;7372542;19;20079;-71
2024/02/28 00:07:46;;;;;;;191.45;46.75;;;2.80;99.90;;;;;;7373544;19;20015;-71
2024/02/28 00:10:14;;;;;;;130.48;41.13;;;2.80;99.90;;;;;;7377206;19;20014;-71
2024/02/28 00:12:41;;;;;;;172.32;44.70;;;2.80;99.90;;;;;;7375139;19;20109;-71
2024/02/28 00:15:10;;;;;;;151.88;41.95;;;2.80;99.90;;;;;;7374899;19;20011;-71
2024/02/28 00:17:42;;;;;;;151.63;43.80;;;2.80;99.90;;;;;;7364407;19;20022;-67
2024/02/28 00:20:09;;;;;;;156.82;44.28;;;2.80;99.90;;;;;;7375534;19;20059;-71
2024/02/28 00:22:39;;;;;;;187.15;45.33;;;2.80;99.90;;;;;;7373984;19;20044;-72
2024/02/28 00:25:06;;;;;;;205.95;50.72;;;2.80;99.90;;;;;;7371340;19;20827;-72
2024/02/28 00:27:33;;;;;;;238.27;52.65;;;2.80;99.90;;;;;;7368185;19;20528;-72
2024/02/28 00:30:00;;;;;;;230.63;47.50;;;2.80;99.90;;;;;;7373120;19;20018;-67
2024/02/28 00:32:26;;;;;;;257.75;52.03;;;2.80;99.90;;;;;;7363978;19;20087;-67
2024/02/28 00:34:53;;;;;;;240.63;50.50;;;2.80;99.90;;;;;;7367882;19;20581;-67
2024/02/28 00:37:22;;;;;;;233.02;52.40;;;2.80;99.90;;;;;;7376586;19;21322;-72
2024/02/28 00:39:50;;;;;;;274.88;54.05;;;2.80;99.90;;;;;;7372743;19;20078;-67
2024/02/28 00:42:17;;;;;;;174.85;47.13;;;2.90;99.90;;;;;;7370368;19;20068;-71
2024/02/28 00:44:46;;;;;;;213.40;50.88;;;2.90;99.90;;;;;;7373912;19;20025;-67
2024/02/28 00:47:14;;;;;;;186.20;47.67;;;2.90;99.90;;;;;;7373470;19;20723;-72
2024/02/28 00:49:40;;;;;;;160.88;44.55;;;2.80;99.90;;;;;;7373304;19;20019;-71
2024/02/28 00:52:06;;;;;;;153.38;45.97;;;2.90;99.90;;;;;;7370795;19;20022;-68
2024/02/28 00:54:33;;;;;;;186.77;45.17;;;2.80;99.90;;;;;;7377309;19;21072;-67
2024/02/28 00:57:00;;;;;;;160.25;43.67;;;2.80;99.90;;;;;;7366979;19;20033;-71
2024/02/28 00:59:27;;;;;;;213.63;49.60;;;2.80;99.90;;;;;;7377362;19;20475;-67
2024/02/28 01:01:53;;;;;;;287.30;54.75;;;2.80;99.90;;;;;;7365962;19;20010;-67
2024/02/28 01:04:20;;;;;;;190.70;45.80;;;2.80;99.90;;;;;;7373612;19;20028;-67
2024/02/28 01:06:48;;;;;;;165.93;43.38;;;2.80;99.90;;;;;;7369638;19;20018;-71
2024/02/28 01:09:14;;;;;;;207.98;44.83;;;2.90;99.90;;;;;;7372689;19;20497;-67
2024/02/28 01:11:41;;;;;;;226.35;47.72;;;2.80;99.90;;;;;;7372482;19;20022;-67
2024/02/28 01:14:07;;;;;;;216.95;47.50;;;2.80;99.90;;;;;;7373359;19;20033;-67
2024/02/28 01:16:33;;;;;;;288.45;53.58;;;2.80;99.90;;;;;;7369009;19;20015;-72
2024/02/28 01:19:03;;;;;;;263.42;53.08;;;2.70;99.90;;;;;;7370950;19;20014;-71
2024/02/28 01:21:33;;;;;;;212.20;50.58;;;2.80;99.90;;;;;;7372245;19;20010;-67
2024/02/28 01:24:00;;;;;;;164.48;44.78;;;2.80;99.90;;;;;;7376586;19;20018;-67
2024/02/28 01:26:28;;;;;;;136.13;42.58;;;2.70;99.90;;;;;;7375659;19;20636;-66
2024/02/28 01:28:55;;;;;;;160.07;42.05;;;2.70;99.90;;;;;;7363195;19;20014;-71
2024/02/28 01:31:22;;;;;;;145.30;42.28;;;2.70;99.90;;;;;;7366047;19;20820;-71
2024/02/28 01:33:51;;;;;;;171.93;45.00;;;2.70;99.90;;;;;;7364559;19;20851;-67
2024/02/28 01:36:17;;;;;;;132.40;40.58;;;2.70;99.90;;;;;;7370052;19;20029;-67
2024/02/28 01:38:43;;;;;;;156.48;42.50;;;2.70;99.90;;;;;;7372186;19;20026;-71
2024/02/28 01:41:10;;;;;;;140.00;42.03;;;2.70;99.90;;;;;;7373516;19;20892;-71
2024/02/28 01:43:36;;;;;;;110.78;39.50;;;2.70;99.90;;;;;;7370562;19;20026;-71
2024/02/28 01:46:09;;;;;;;131.13;42.10;;;2.70;99.90;;;;;;7370425;19;20029;-71
2024/02/28 01:48:36;;;;;;;134.45;42.03;;;2.80;99.90;;;;;;7372786;19;20083;-71
2024/02/28 01:51:03;;;;;;;134.30;41.72;;;2.70;99.90;;;;;;7370650;19;20814;-67
2024/02/28 01:53:29;;;;;;;129.77;40.55;;;2.70;99.90;;;;;;7366185;19;20019;-71
2024/02/28 01:55:56;;;;;;;181.75;46.28;;;2.70;99.90;;;;;;7367178;19;20379;-71
2024/02/28 01:58:26;;;;;;;158.20;45.42;;;2.70;99.90;;;;;;7370527;19;20019;-67
2024/02/28 02:00:53;;;;;;;164.13;44.60;;;2.70;99.90;;;;;;7368305;19;20023;-68
2024/02/28 02:03:20;;;;;;;177.98;45.95;;;2.70;99.90;;;;;;7367917;19;20039;-71
2024/02/28 02:05:47;;;;;;;153.02;45.65;;;2.70;99.90;;;;;;7367443;19;20018;-71
2024/02/28 02:08:14;;;;;;;160.00;46.60;;;2.80;99.90;;;;;;7368212;19;20528;-71
2024/02/28 02:10:41;;;;;;;134.52;43.42;;;2.80;99.90;;;;;;7366373;19;20023;-71
2024/02/28 02:13:08;;;;;;;133.98;43.78;;;2.80;99.90;;;;;;7369479;19;20018;-67
2024/02/28 02:15:36;;;;;;;149.73;43.58;;;2.80;99.90;;;;;;7369845;19;20535;-67
2024/02/28 02:18:03;;;;;;;111.60;41.83;;;2.80;99.90;;;;;;7374632;19;20108;-67
2024/02/28 02:20:34;;;;;;;97.80;38.17;;;2.80;99.90;;;;;;7369407;19;20039;-71
2024/02/28 02:23:02;;;;;;;103.00;38.72;;;2.80;99.90;;;;;;7370290;19;20106;-67
2024/02/28 02:25:29;;;;;;;101.03;41.53;;;2.80;99.90;;;;;;7360734;19;20022;-67
2024/02/28 02:27:55;;;;;;;112.28;42.33;;;2.80;99.90;;;;;;7368784;19;20015;-71
2024/02/28 02:30:22;;;;;;;99.20;41.10;;;2.80;99.90;;;;;;7369712;19;20031;-71
2024/02/28 02:32:49;;;;;;;111.90;42.53;;;2.80;99.90;;;;;;7370917;19;21444;-67
2024/02/28 02:35:16;;;;;;;135.13;44.33;;;2.70;99.90;;;;;;7371005;19;20019;-67
2024/02/28 02:37:45;;;;;;;114.20;42.38;;;2.80;99.90;;;;;;7365436;19;20014;-67
2024/02/28 02:40:14;;;;;;;108.32;39.97;;;2.80;99.90;;;;;;7363880;19;20018;-71
2024/02/28 02:42:42;;;;;;;139.68;43.20;;;2.80;99.90;;;;;;7369134;19;20473;-71
2024/02/28 02:45:10;;;;;;;111.22;41.97;;;2.80;99.90;;;;;;7368775;19;20021;-71
2024/02/28 02:47:37;;;;;;;125.63;42.05;;;2.80;99.90;;;;;;7372710;19;20830;-67
2024/02/28 02:50:06;;;;;;;124.13;42.15;;;2.70;99.90;;;;;;7369601;19;20546;-68
2024/02/28 02:52:52;;;;;;;115.13;42.15;;;2.80;99.90;;;;;;7370221;19;20026;-67
2024/02/28 02:55:21;;;;;;;140.45;44.17;;;2.80;99.90;;;;;;7370423;19;20917;-71
2024/02/28 02:57:52;;;;;;;117.07;42.35;;;2.80;99.90;;;;;;7365519;19;20033;-71
2024/02/28 03:00:22;;;;;;;141.68;44.58;;;2.70;99.90;;;;;;7369310;19;20010;-67
2024/02/28 03:02:51;;;;;;;114.25;41.33;;;2.70;99.90;;;;;;7365298;19;20070;-67
2024/02/28 03:05:19;;;;;;;114.88;42.08;;;2.80;99.90;;;;;;7369934;19;20014;-67
2024/02/28 03:07:46;;;;;;;123.13;43.67;;;2.70;99.90;;;;;;7365386;19;20470;-71
2024/02/28 03:10:15;;;;;;;115.38;39.35;;;2.70;99.90;;;;;;7368333;19;20813;-70
2024/02/28 03:12:42;;;;;;;113.03;42.40;;;2.60;99.90;;;;;;7361182;19;20021;-71
2024/02/28 03:15:09;;;;;;;100.53;38.33;;;2.60;99.90;;;;;;7369806;19;20569;-71
2024/02/28 03:17:37;;;;;;;106.70;41.03;;;2.60;99.90;;;;;;7369216;19;20142;-71
2024/02/28 03:20:07;;;;;;;109.38;40.60;;;2.60;99.90;;;;;;7369702;19;20018;-71
2024/02/28 03:22:37;;;;;;;119.57;42.80;;;2.70;99.90;;;;;;7366406;19;20020;-71
2024/02/28 03:25:05;;;;;;;143.75;45.20;;;2.70;99.90;;;;;;7364136;19;20018;-67
2024/02/28 03:27:32;;;;;;;116.05;42.10;;;2.70;99.90;;;;;;7361639;19;20026;-67
2024/02/28 03:29:59;;;;;;;132.07;44.97;;;2.70;99.90;;;;;;7368240;19;21090;-71
2024/02/28 03:32:27;;;;;;;155.57;48.03;;;2.80;99.90;;;;;;7368358;19;20025;-72
2024/02/28 03:34:54;;;;;;;158.52;46.65;;;2.80;99.90;;;;;;7365521;19;20752;-67
2024/02/28 03:37:22;;;;;;;182.20;47.05;;;2.80;99.90;;;;;;7368750;19;20672;-67
2024/02/28 03:39:51;;;;;;;161.55;46.47;;;2.80;99.90;;;;;;7358304;19;20011;-71
2024/02/28 03:42:21;;;;;;;148.40;45.53;;;2.80;99.90;;;;;;7368264;19;21282;-71
2024/02/28 03:44:48;;;;;;;155.00;45.33;;;2.70;99.90;;;;;;7369006;19;20045;-67
2024/02/28 03:47:15;;;;;;;116.70;40.33;;;2.70;99.90;;;;;;7364323;19;20121;-71
2024/02/28 03:49:44;;;;;;;120.18;40.08;;;2.70;99.90;;;;;;7368689;19;20115;-71
2024/02/28 03:52:12;;;;;;;161.38;43.90;;;2.70;99.90;;;;;;7366805;19;20118;-72
2024/02/28 03:54:43;;;;;;;132.77;45.22;;;2.80;99.90;;;;;;7371290;19;20019;-72
2024/02/28 03:57:11;;;;;;;146.73;44.67;;;2.70;99.90;;;;;;7365584;19;20011;-71
2024/02/28 03:59:37;;;;;;;161.60;44.20;;;2.70;99.90;;;;;;7366851;19;20022;-71
2024/02/28 04:02:05;;;;;;;132.80;42.88;;;2.70;99.90;;;;;;7368240;19;20018;-71
2024/02/28 04:04:32;;;;;;;130.77;42.95;;;2.70;99.90;;;;;;7369025;19;20014;-71
2024/02/28 04:06:58;;;;;;;140.50;44.78;;;2.70;99.90;;;;;;7364798;19;20502;-67
2024/02/28 04:09:25;;;;;;;106.50;40.22;;;2.70;99.90;;;;;;7371346;19;20106;-66
2024/02/28 04:11:53;;;;;;;131.15;42.45;;;2.70;99.90;;;;;;7363310;19;20375;-71
2024/02/28 04:14:21;;;;;;;143.52;41.53;;;2.70;99.90;;;;;;7365821;19;20049;-71
2024/02/28 04:16:50;;;;;;;157.98;45.78;;;2.70;99.90;;;;;;7365242;19;20021;-72
2024/02/28 04:19:16;;;;;;;160.13;44.50;;;2.70;99.90;;;;;;7367000;19;20027;-72
2024/02/28 04:21:46;;;;;;;145.18;42.10;;;2.70;99.90;;;;;;7368799;19;20062;-71
2024/02/28 04:24:13;;;;;;;128.00;42.70;;;2.70;99.90;;;;;;7368374;19;20015;-67
2024/02/28 04:26:39;;;;;;;126.93;43.45;;;2.70;99.90;;;;;;7366115;19;20744;-67
2024/02/28 04:29:12;;;;;;;117.15;41.55;;;2.70;99.90;;;;;;7370835;19;20019;-72
2024/02/28 04:31:42;;;;;;;112.40;42.13;;;2.70;99.90;;;;;;7367477;19;20026;-67
2024/02/28 04:34:14;;;;;;;131.45;42.15;;;2.70;99.90;;;;;;7368450;19;20375;-71
2024/02/28 04:36:41;;;;;;;138.82;43.75;;;2.70;99.90;;;;;;7363308;19;20022;-71
2024/02/28 04:39:11;;;;;;;128.70;44.38;;;2.70;99.90;;;;;;7367544;19;20049;-71
2024/02/28 04:41:37;;;;;;;111.88;42.47;;;2.70;99.90;;;;;;7365531;19;20054;-71
2024/02/28 04:44:04;;;;;;;96.05;40.67;;;2.80;99.90;;;;;;7360586;19;20056;-67
2024/02/28 04:46:34;;;;;;;95.15;40.00;;;2.80;99.90;;;;;;7367927;19;20023;-67
2024/02/28 04:49:01;;;;;;;103.68;40.40;;;2.80;99.90;;;;;;7361011;19;20030;-71
2024/02/28 04:51:28;;;;;;;99.90;40.58;;;2.80;99.90;;;;;;7365132;19;20049;-71
2024/02/28 04:53:54;;;;;;;100.15;40.10;;;2.80;99.90;;;;;;7365509;19;20547;-71
2024/02/28 04:56:21;;;;;;;100.53;39.20;;;2.90;99.90;;;;;;7365818;19;20457;-71
2024/02/28 04:58:49;;;;;;;106.70;40.83;;;2.90;99.90;;;;;;7369532;19;20971;-71
2024/02/28 05:01:16;;;;;;;92.40;40.08;;;2.90;99.90;;;;;;7374530;19;20015;-68
2024/02/28 05:03:44;;;;;;;91.93;38.83;;;2.90;99.90;;;;;;7367062;19;20018;-72
2024/02/28 05:06:11;;;;;;;91.65;40.03;;;2.90;99.90;;;;;;7375853;19;20770;-72
2024/02/28 05:08:39;;;;;;;91.70;39.10;;;2.90;99.90;;;;;;7374846;19;20022;-71
2024/02/28 05:11:07;;;;;;;90.72;37.88;;;3.00;99.90;;;;;;7373603;19;20018;-69
2024/02/28 05:13:35;;;;;;;87.05;39.03;;;3.00;99.90;;;;;;7366817;19;20078;-71
2024/02/28 05:16:03;;;;;;;84.07;37.75;;;3.00;99.90;;;;;;7370077;19;20153;-72
2024/02/28 05:18:30;;;;;;;82.53;38.38;;;3.00;99.90;;;;;;7367244;19;20026;-71
2024/02/28 05:21:01;;;;;;;85.20;39.45;;;3.00;99.90;;;;;;7371776;19;20022;-68
2024/02/28 05:23:30;;;;;;;81.47;38.90;;;3.00;99.90;;;;;;7368300;19;20033;-67
2024/02/28 05:29:08;;;;;;;81.25;39.20;;;3.10;99.90;;;;;;7366590;19;20007;-67
2024/02/28 05:31:38;;;;;;;84.47;39.00;;;3.10;99.90;;;;;;7374432;19;20010;-72
2024/02/28 05:34:05;;;;;;;78.63;39.10;;;3.10;99.90;;;;;;7369427;19;20015;-72
2024/02/28 05:36:32;;;;;;;80.20;37.95;;;3.10;99.90;;;;;;7376031;19;20031;-67
2024/02/28 05:39:05;;;;;;;72.43;37.92;;;3.10;99.90;;;;;;7367689;19;20031;-68
2024/02/28 05:41:36;;;;;;;85.60;37.60;;;3.10;99.90;;;;;;7377670;19;20017;-71
2024/02/28 05:44:03;;;;;;;80.35;37.45;;;3.10;99.90;;;;;;7370223;19;20026;-72
2024/02/28 05:46:32;;;;;;;78.18;37.92;;;3.20;99.90;;;;;;7376300;19;20844;-72
2024/02/28 05:49:00;;;;;;;75.00;37.60;;;3.20;99.90;;;;;;7373290;19;20018;-67
2024/02/28 05:51:26;;;;;;;83.78;39.95;;;3.20;99.90;;;;;;7376083;19;20078;-67
2024/02/28 05:53:54;;;;;;;73.40;37.88;;;3.20;99.90;;;;;;7371681;19;21039;-67
2024/02/28 05:56:22;;;;;;;72.97;36.25;;;3.20;99.90;;;;;;7374324;19;20375;-69
2024/02/28 05:58:50;;;;;;;78.10;37.42;;;3.20;99.90;;;;;;7374673;19;20041;-68
2024/02/28 06:01:17;;;;;;;70.43;35.13;;;3.20;99.90;;;;;;7370520;19;20015;-68
2024/02/28 06:03:50;;;;;;;70.20;35.45;;;3.30;99.90;;;;;;7370872;19;20454;-71
2024/02/28 06:06:18;;;;;;;74.22;37.30;;;3.30;99.90;;;;;;7369709;19;20057;-67
2024/02/28 06:08:44;;;;;;;107.65;61.42;;;3.30;99.90;;;;;;7372128;19;20682;-74
2024/02/28 06:11:11;;;;;;;77.85;38.53;;;3.40;99.90;;;;;;7369631;19;20014;-72
2024/02/28 06:13:40;;;;;;;69.10;35.75;;;3.40;99.90;;;;;;7370972;19;20897;-72
2024/02/28 06:16:06;;;;;;;77.85;38.22;;;3.40;99.90;;;;;;7371741;19;20414;-68
2024/02/28 06:18:33;;;;;;;70.38;37.25;;;3.40;99.90;;;;;;7376361;19;20022;-72
2024/02/28 06:21:00;;;;;;;67.05;34.42;;;3.40;99.90;;;;;;7368684;19;20081;-67
2024/02/28 06:23:27;;;;;;;76.03;37.00;;;3.40;99.90;;;;;;7371888;19;20045;-68
2024/02/28 06:25:53;;;;;;;68.40;35.13;;;3.40;99.90;;;;;;7371810;19;20057;-67
2024/02/28 06:28:22;;;;;;;66.80;34.80;;;3.40;99.90;;;;;;7367982;19;20019;-72
2024/02/28 06:30:49;;;;;;;74.68;35.75;;;3.50;99.90;;;;;;7374381;19;20027;-72
2024/02/28 06:33:16;;;;;;;81.15;38.08;;;3.50;99.90;;;;;;7369014;19;20018;-71
2024/02/28 06:35:43;;;;;;;78.95;37.78;;;3.40;99.90;;;;;;7373701;19;20473;-73
2024/02/28 06:38:09;;;;;;;73.30;36.63;;;3.50;99.90;;;;;;7369400;19;20027;-72
2024/02/28 06:40:36;;;;;;;72.57;36.17;;;3.50;99.90;;;;;;7376065;19;20364;-68
2024/02/28 06:43:02;;;;;;;69.95;35.20;;;3.50;99.90;;;;;;7365241;19;20078;-67
2024/02/28 06:45:30;;;;;;;67.00;35.50;;;3.60;99.90;;;;;;7372442;19;20597;-72
2024/02/28 06:47:58;;;;;;;75.20;36.80;;;3.60;99.90;;;;;;7367014;19;20010;-71
2024/02/28 06:50:26;;;;;;;65.10;33.92;;;3.60;99.90;;;;;;7376685;19;20014;-72
2024/02/28 06:52:54;;;;;;;68.60;34.90;;;3.60;99.90;;;;;;7368872;19;20045;-72
2024/02/28 06:55:22;;;;;;;68.68;34.95;;;3.60;99.90;;;;;;7369118;19;20396;-72
2024/02/28 06:57:50;;;;;;;65.20;34.90;;;3.60;99.90;;;;;;7366852;19;20025;-72
2024/02/28 07:00:21;;;;;;;70.03;36.63;;;3.60;99.90;;;;;;7373063;19;20023;-72
2024/02/28 07:02:48;;;;;;;66.43;35.20;;;3.60;99.90;;;;;;7373082;19;20828;-66
2024/02/28 07:05:15;;;;;;;68.32;36.75;;;3.60;99.90;;;;;;7371193;19;20074;-64
2024/02/28 07:07:45;;;;;;;61.38;32.33;;;3.60;99.90;;;;;;7370453;19;20055;-73
2024/02/28 07:10:11;;;;;;;62.08;32.22;;;3.60;99.90;;;;;;7367482;19;20018;-72
2024/02/28 07:12:38;;;;;;;59.15;32.08;;;3.70;99.90;;;;;;7365161;19;20390;-67
2024/02/28 07:15:04;;;;;;;64.47;33.95;;;3.70;99.90;;;;;;7368202;19;20026;-72
2024/02/28 07:17:31;;;;;;;65.57;34.90;;;3.70;99.90;;;;;;7374635;19;20487;-72
2024/02/28 07:19:58;;;;;;;62.53;34.15;;;3.70;99.90;;;;;;7365395;19;20353;-67
2024/02/28 07:22:24;;;;;;;69.03;34.63;;;3.70;99.90;;;;;;7373082;19;20859;-67
2024/02/28 07:24:52;;;;;;;65.05;35.30;;;3.80;99.90;;;;;;7362095;19;20015;-66
2024/02/28 07:27:21;;;;;;;70.40;34.90;;;3.80;99.90;;;;;;7372232;19;20026;-68
2024/02/28 07:29:54;;;;;;;68.43;34.95;;;3.80;99.90;;;;;;7369166;19;20021;-67
2024/02/28 07:32:25;;;;;;;64.57;35.47;;;3.80;99.90;;;;;;7370038;19;20383;-73
2024/02/28 07:34:53;;;;;;;62.38;34.72;;;3.90;99.90;;;;;;7367117;19;20026;-73
2024/02/28 07:37:21;;;;;;;63.15;35.17;;;3.90;99.90;;;;;;7369489;19;20023;-67
2024/02/28 07:39:48;;;;;;;63.70;35.67;;;3.90;99.90;;;;;;7372107;19;20036;-68
2024/02/28 07:42:18;;;;;;;69.40;35.55;;;4.00;99.90;;;;;;7370593;19;20018;-68
2024/02/28 07:44:45;;;;;;;60.88;35.17;;;4.00;99.90;;;;;;7370645;19;20082;-68
2024/02/28 07:47:14;;;;;;;58.92;32.55;;;4.00;99.90;;;;;;7374071;19;20475;-67
2024/02/28 07:49:43;;;;;;;66.95;35.53;;;4.10;99.90;;;;;;7371415;19;20108;-72
2024/02/28 07:52:10;;;;;;;64.50;34.42;;;4.10;99.90;;;;;;7363834;19;20524;-72
2024/02/28 07:54:37;;;;;;;60.60;33.65;;;4.10;99.90;;;;;;7366905;19;20019;-67
2024/02/28 07:57:09;;;;;;;65.57;35.97;;;4.20;99.90;;;;;;7365387;19;20019;-67
2024/02/28 07:59:44;;;;;;;60.00;33.95;;;4.20;99.90;;;;;;7371997;19;20090;-67
2024/02/28 08:02:13;;;;;;;60.38;34.67;;;4.20;99.90;;;;;;7366376;19;21113;-67
2024/02/28 08:04:40;;;;;;;57.50;33.90;;;4.30;99.90;;;;;;7370141;19;20015;-67
2024/02/28 08:07:07;;;;;;;59.88;34.97;;;4.30;99.90;;;;;;7367069;19;20011;-67
2024/02/28 08:09:35;;;;;;;60.08;34.75;;;4.30;99.90;;;;;;7371078;19;20014;-68
2024/02/28 08:12:02;;;;;;;57.85;33.67;;;4.30;99.90;;;;;;7363811;19;20029;-67
2024/02/28 08:14:31;;;;;;;60.15;33.65;;;4.30;99.90;;;;;;7369985;19;20021;-71
2024/02/28 08:16:59;;;;;;;59.58;33.42;;;4.30;99.90;;;;;;7358776;19;20022;-67
2024/02/28 08:19:26;;;;;;;57.83;33.10;;;4.30;99.90;;;;;;7364473;19;20010;-66
2024/02/28 08:21:54;;;;;;;57.58;33.20;;;4.30;99.90;;;;;;7367651;19;20406;-67
2024/02/28 08:24:22;;;;;;;62.50;35.03;;;4.20;99.90;;;;;;7371512;19;20026;-71
2024/02/28 08:26:52;;;;;;;63.78;35.90;;;4.20;99.90;;;;;;7372567;19;20025;-71
2024/02/28 08:29:19;;;;;;;63.28;35.97;;;4.20;99.90;;;;;;7374279;19;20006;-70
2024/02/28 08:31:46;;;;;;;56.28;35.05;;;4.20;99.90;;;;;;7369635;19;20493;-71
2024/02/28 08:34:14;;;;;;;57.72;34.75;;;4.20;99.90;;;;;;7375258;19;20018;-71
2024/02/28 08:36:41;;;;;;;63.17;36.45;;;4.30;99.90;;;;;;7373917;19;20018;-74
2024/02/28 08:39:09;;;;;;;58.10;33.53;;;4.30;99.90;;;;;;7367940;19;20041;-71
2024/02/28 08:41:37;;;;;;;60.17;35.88;;;4.30;99.90;;;;;;7373222;19;20018;-67
2024/02/28 08:44:05;;;;;;;57.47;34.45;;;4.20;99.90;;;;;;7374131;19;20015;-67
2024/02/28 08:46:32;;;;;;;69.03;38.67;;;4.40;99.90;;;;;;7378746;19;20956;-66
2024/02/28 08:49:00;;;;;;;60.75;35.97;;;4.40;99.90;;;;;;7376097;19;20018;-67
2024/02/28 08:51:27;;;;;;;57.60;35.13;;;4.50;99.90;;;;;;7376401;19;20022;-69
2024/02/28 08:53:55;;;;;;;62.85;35.28;;;4.50;99.90;;;;;;7374657;19;20022;-67
2024/02/28 08:56:24;;;;;;;62.72;35.25;;;4.50;99.90;;;;;;7378994;19;20082;-69
2024/02/28 08:58:52;;;;;;;66.50;36.50;;;4.60;99.90;;;;;;7377075;19;20011;-68
2024/02/28 09:01:22;;;;;;;62.08;36.17;;;4.60;99.90;;;;;;7378977;19;20011;-72
2024/02/28 09:03:49;;;;;;;58.33;35.90;;;4.70;99.90;;;;;;7369219;19;20010;-68
2024/02/28 09:06:16;;;;;;;58.75;34.08;;;4.60;99.90;;;;;;7372425;19;20922;-71
2024/02/28 09:08:43;;;;;;;58.90;36.00;;;4.60;99.90;;;;;;7375231;19;20022;-70
2024/02/28 09:11:12;;;;;;;55.15;34.08;;;4.60;99.90;;;;;;7368085;19;20092;-67
2024/02/28 09:13:39;;;;;;;57.47;34.83;;;4.60;99.90;;;;;;7373172;19;20498;-68
2024/02/28 09:16:09;;;;;;;59.80;34.80;;;4.70;99.90;;;;;;7367983;19;20018;-71
2024/02/28 09:18:38;;;;;;;61.58;37.53;;;4.80;99.90;;;;;;7367389;19;20858;-67
2024/02/28 09:21:05;;;;;;;56.45;34.35;;;4.80;99.90;;;;;;7370087;19;20011;-66
2024/02/28 09:23:32;;;;;;;54.67;36.17;;;4.80;99.90;;;;;;7371719;19;20733;-67
2024/02/28 09:26:03;;;;;;;54.72;34.08;;;5.00;99.90;;;;;;7368956;19;20014;-67
2024/02/28 09:28:34;;;;;;;51.92;33.45;;;5.10;99.90;;;;;;7373657;19;20646;-67
2024/02/28 09:31:04;;;;;;;54.20;36.15;;;5.30;99.90;;;;;;7375458;19;20025;-70
2024/02/28 09:33:31;;;;;;;54.80;35.72;;;5.60;99.90;;;;;;7372942;19;20018;-71
2024/02/28 09:36:03;;;;;;;57.88;36.58;;;5.70;99.90;;;;;;7376269;19;20082;-67
2024/02/28 09:38:32;;;;;;;50.05;34.40;;;5.80;99.90;;;;;;7376172;19;20047;-66
2024/02/28 09:41:02;;;;;;;51.63;34.92;;;5.80;99.90;;;;;;7372464;19;20112;-66
2024/02/28 09:43:40;;;;;;;52.38;34.97;;;5.80;99.90;;;;;;7370991;19;20002;-68
2024/02/28 09:46:11;;;;;;;51.55;34.10;;;5.90;99.90;;;;;;7376125;19;20633;-68
2024/02/28 09:48:43;;;;;;;52.75;35.50;;;6.00;99.90;;;;;;7374247;19;20026;-67
2024/02/28 09:51:14;;;;;;;48.00;32.97;;;6.00;99.90;;;;;;7370413;19;20031;-67
2024/02/28 09:53:42;;;;;;;51.45;35.53;;;5.90;99.90;;;;;;7354489;19;20014;-71
2024/02/28 09:56:09;;;;;;;52.00;34.58;;;6.00;99.90;;;;;;7369182;19;20839;-67
2024/02/28 09:58:39;;;;;;;50.17;34.97;;;6.00;99.90;;;;;;7360890;19;20538;-71
2024/02/28 10:01:09;;;;;;;54.45;35.10;;;6.00;99.90;;;;;;7374038;19;20787;-70
2024/02/28 10:03:37;;;;;;;50.20;34.13;;;6.10;99.90;;;;;;7370086;19;20018;-69
2024/02/28 10:06:13;;;;;;;49.40;34.20;;;6.20;99.90;;;;;;7374088;19;20070;-68
2024/02/28 10:08:42;;;;;;;48.30;33.33;;;6.50;99.90;;;;;;7357180;19;20021;-69
2024/02/28 10:11:08;;;;;;;45.75;32.40;;;6.70;99.90;;;;;;7371741;19;20015;-69
2024/02/28 10:13:36;;;;;;;47.35;32.88;;;6.80;99.90;;;;;;7361409;19;20011;-70
2024/02/28 10:16:06;;;;;;;46.80;34.55;;;6.90;99.90;;;;;;7369286;19;20049;-66
2024/02/28 10:18:32;;;;;;;46.72;34.35;;;6.80;99.90;;;;;;7368914;19;20475;-69
2024/02/28 10:21:00;;;;;;;45.10;33.20;;;6.60;99.90;;;;;;7360171;19;20018;-69
2024/02/28 10:23:27;;;;;;;46.05;34.75;;;6.40;99.90;;;;;;7367790;19;20017;-70
2024/02/28 10:25:54;;;;;;;45.63;32.08;;;6.40;99.90;;;;;;7361740;19;20023;-68
2024/02/28 10:28:22;;;;;;;48.63;34.85;;;6.40;99.90;;;;;;7359965;19;20022;-69
2024/02/28 10:30:49;;;;;;;49.03;34.70;;;6.40;99.90;;;;;;7375527;19;20064;-69
2024/02/28 10:33:16;;;;;;;47.75;34.15;;;6.40;99.90;;;;;;7370142;19;20014;-69
2024/02/28 10:35:44;;;;;;;48.13;34.47;;;6.50;99.90;;;;;;7367468;19;20029;-65
2024/02/28 10:38:13;;;;;;;42.53;33.25;;;6.40;99.90;;;;;;7364939;19;20039;-66
2024/02/28 10:40:40;;;;;;;49.45;34.15;;;6.30;99.90;;;;;;7363509;19;20113;-66
2024/02/28 10:43:11;;;;;;;44.35;33.63;;;6.40;99.90;;;;;;7365473;19;20089;-66
2024/02/28 10:45:38;;;;;;;47.47;34.13;;;6.40;99.90;;;;;;7365131;19;20047;-65
2024/02/28 10:48:07;;;;;;;48.88;35.25;;;6.40;99.90;;;;;;7366723;19;20018;-65
2024/02/28 10:50:35;;;;;;;46.13;34.50;;;6.40;99.90;;;;;;7372654;19;20022;-65
2024/02/28 10:53:07;;;;;;;49.53;34.88;;;6.50;99.90;;;;;;7361608;19;20585;-62
2024/02/28 10:55:40;;;;;;;50.25;36.58;;;6.50;99.90;;;;;;7368770;19;20021;-65
2024/02/28 10:58:12;;;;;;;48.30;34.80;;;6.50;99.90;;;;;;7362596;19;20011;-65
2024/02/28 11:00:43;;;;;;;48.83;35.75;;;6.60;99.90;;;;;;7372770;19;20086;-65
2024/02/28 11:03:22;;;;;;;49.97;36.85;;;6.70;99.90;;;;;;7367838;19;20014;-68
2024/02/28 11:05:50;;;;;;;50.35;36.17;;;6.70;99.90;;;;;;7372630;19;20415;-68
2024/02/28 11:08:24;;;;;;;45.05;33.33;;;6.70;99.90;;;;;;7369577;19;20437;-69
2024/02/28 11:11:06;;;;;;;48.33;36.60;;;6.70;99.90;;;;;;7371953;19;20478;-65
2024/02/28 11:13:38;;;;;;;49.35;35.63;;;6.70;99.90;;;;;;7369611;19;20029;-65
2024/02/28 11:16:10;;;;;;;48.63;34.35;;;6.70;99.90;;;;;;7369297;19;20040;-65
2024/02/28 11:18:52;;;;;;;44.85;34.88;;;6.80;99.90;;;;;;7370109;19;20022;-65
2024/02/28 11:21:28;;;;;;;47.72;36.85;;;6.80;99.90;;;;;;7368280;19;20029;-65
2024/02/28 11:24:02;;;;;;;47.20;35.30;;;7.00;99.90;;;;;;7368475;19;20108;-69
2024/02/28 11:26:29;;;;;;;44.35;33.85;;;7.10;99.90;;;;;;7372439;19;20049;-69
2024/02/28 11:28:57;;;;;;;40.78;33.50;;;7.10;99.90;;;;;;7370666;19;20018;-70
2024/02/28 11:31:26;;;;;;;42.67;34.38;;;7.20;99.90;;;;;;7375270;19;20090;-69
2024/02/28 11:33:54;;;;;;;40.38;31.52;;;7.30;99.90;;;;;;7366128;19;20792;-70
2024/02/28 11:36:24;;;;;;;39.20;33.58;;;7.40;99.90;;;;;;7365852;19;20011;-67
2024/02/28 11:38:53;;;;;;;38.65;32.47;;;7.50;99.90;;;;;;7365143;19;20859;-67
2024/02/28 11:41:28;;;;;;;37.85;33.47;;;7.60;99.90;;;;;;7371347;19;20014;-69
2024/02/28 11:43:56;;;;;;;41.17;34.58;;;7.80;99.90;;;;;;7365132;19;20022;-70
2024/02/28 11:46:24;;;;;;;39.13;32.50;;;7.80;99.90;;;;;;7371227;19;20597;-70
2024/02/28 11:49:01;;;;;;;40.90;33.65;;;7.80;99.90;;;;;;7369940;19;20051;-71
2024/02/28 11:51:32;;;;;;;38.05;32.58;;;7.90;99.90;;;;;;7372501;19;20581;-70
2024/02/28 11:54:02;;;;;;;38.55;33.22;;;7.80;99.90;;;;;;7363081;19;20019;-69
2024/02/28 11:56:29;;;;;;;35.78;30.88;;;7.80;99.90;;;;;;7375990;19;20782;-66
2024/02/28 11:58:59;;;;;;;38.95;33.60;;;7.90;99.90;;;;;;7363293;19;21416;-67
2024/02/28 12:01:37;;;;;;;42.17;32.50;;;7.90;99.90;;;;;;7373636;19;20034;-67
2024/02/28 12:04:05;;;;;;;34.70;30.98;;;7.90;99.90;;;;;;7382903;19;20018;-73
2024/02/28 12:06:37;;;;;;;37.47;31.48;;;7.90;99.90;;;;;;7385345;19;20077;-73
2024/02/28 12:09:08;;;;;;;35.05;31.38;;;7.90;99.90;;;;;;7377134;19;20078;-70
2024/02/28 12:11:37;;;;;;;37.55;32.25;;;8.00;99.90;;;;;;7385808;19;20019;-73
2024/02/28 12:14:12;;;;;;;35.40;31.60;;;8.00;99.90;;;;;;7374582;19;21011;-67
2024/02/28 12:16:39;;;;;;;35.28;30.77;;;8.00;99.90;;;;;;7377292;19;20130;-73
2024/02/28 12:19:13;;;;;;;39.40;35.08;;;8.00;99.90;;;;;;7372305;19;20010;-69
2024/02/28 12:21:40;;;;;;;190.63;149.43;;;8.00;99.90;;;;;;7381584;19;20015;-69
2024/02/28 12:24:10;;;;;;;38.83;34.63;;;8.10;99.90;;;;;;7371921;19;20019;-71
2024/02/28 12:26:38;;;;;;;40.28;34.50;;;8.00;99.90;;;;;;7380691;19;20612;-73
2024/02/28 12:29:05;;;;;;;39.80;34.30;;;8.10;99.90;;;;;;7381967;19;20010;-73
2024/02/28 12:31:33;;;;;;;36.42;32.53;;;8.10;99.90;;;;;;7375481;19;20025;-73
2024/02/28 12:34:05;;;;;;;36.22;31.25;;;8.00;99.90;;;;;;7369824;19;20022;-73
2024/02/28 12:36:32;;;;;;;37.47;33.47;;;8.00;99.90;;;;;;7381852;19;20034;-74
2024/02/28 12:38:59;;;;;;;37.08;33.10;;;8.00;99.90;;;;;;7379929;19;20019;-73
2024/02/28 12:41:27;;;;;;;39.50;33.00;;;8.00;99.90;;;;;;7385751;19;20618;-71